Time;durP1;ratioP1;P1;durP2;ratioP2;P2;SDS_P1;SDS_P2;PMS_P1;PMS_P2;Temp;Humidity;BMP_temperature;BMP_pressure;BME280_temperature;BME280_humidity;BME280_pressure;Samples;Min_cycle;Max_cycle;Signal;HPM_P1;HPM_P2
2023/06/24 00:00:55;;;;;;;;;;;;;;;24.85;49.61;99801.03;5020994;28;19976;-74
2023/06/24 00:03:21;;;;;;;;;;;;;;;24.82;49.13;99796.91;5022829;28;19955;-74
2023/06/24 00:05:49;;;;;;;;;;;;;;;24.69;50.19;99796.25;5022387;28;19917;-74
2023/06/24 00:08:19;;;;;;;;;;;;;;;24.69;50.24;99797.06;5021904;28;20341;-74
2023/06/24 00:10:47;;;;;;;;;;;;;;;24.65;50.28;99792.38;5021241;28;20336;-74
2023/06/24 00:13:14;;;;;;;;;;;;;;;24.55;51.08;99795.63;5028231;28;20329;-73
2023/06/24 00:15:42;;;;;;;;;;;;;;;24.34;51.95;99788.81;5020740;28;19960;-74
2023/06/24 00:18:11;;;;;;;;;;;;;;;24.34;52.15;99798.78;5023172;28;20281;-74
2023/06/24 00:20:36;;;;;;;;;;;;;;;24.32;52.79;99798.19;5020898;28;20301;-73
2023/06/24 00:23:02;;;;;;;;;;;;;;;24.40;53.02;99798.69;5023843;28;19921;-74
2023/06/24 00:25:28;;;;;;;;;;;;;;;24.35;52.24;99805.81;5021244;28;19924;-74
2023/06/24 00:27:53;;;;;;;;;;;;;;;24.39;52.62;99815.09;5022701;28;19943;-73
2023/06/24 00:30:18;;;;;;;;;;;;;;;24.37;53.40;99812.66;5022153;28;19917;-73
2023/06/24 00:32:44;;;;;;;;;;;;;;;24.34;54.00;99812.25;5019664;28;19940;-74
2023/06/24 00:35:12;;;;;;;;;;;;;;;24.34;53.88;99812.25;5022167;28;19917;-73
2023/06/24 00:37:37;;;;;;;;;;;;;;;24.28;53.97;99807.75;5035428;28;19961;-74
2023/06/24 00:40:03;;;;;;;;;;;;;;;24.27;53.58;99804.25;5023050;28;20018;-74
2023/06/24 00:42:29;;;;;;;;;;;;;;;24.26;53.99;99805.31;5025834;28;20044;-73
2023/06/24 00:44:55;;;;;;;;;;;;;;;24.26;53.91;99807.19;5021583;28;19968;-74
2023/06/24 00:47:22;;;;;;;;;;;;;;;24.21;53.59;99801.66;5021134;28;19944;-74
2023/06/24 00:49:48;;;;;;;;;;;;;;;24.16;54.19;99812.22;5018868;28;20088;-73
2023/06/24 00:52:16;;;;;;;;;;;;;;;24.09;54.33;99813.13;5037876;28;19967;-73
2023/06/24 00:54:44;;;;;;;;;;;;;;;24.03;55.05;99808.63;5021907;28;19924;-73
2023/06/24 00:57:10;;;;;;;;;;;;;;;23.95;54.52;99810.81;5018893;28;20379;-72
2023/06/24 00:59:37;;;;;;;;;;;;;;;23.88;54.84;99810.03;5019794;28;19942;-72
2023/06/24 01:02:04;;;;;;;;;;;;;;;23.88;55.11;99810.03;5020107;28;19967;-73
2023/06/24 01:04:33;;;;;;;;;;;;;;;23.85;55.10;99811.34;5037626;28;19922;-73
2023/06/24 01:06:59;;;;;;;;;;;;;;;23.88;54.59;99805.47;5020590;28;20816;-74
2023/06/24 01:09:25;;;;;;;;;;;;;;;23.78;54.95;99812.44;5020873;28;19993;-74
2023/06/24 01:11:51;;;;;;;;;;;;;;;23.76;54.89;99818.03;5025214;28;19940;-74
2023/06/24 01:14:19;;;;;;;;;;;;;;;23.74;54.76;99820.13;5021271;28;19963;-74
2023/06/24 01:16:54;;;;;;;;;;;;;;;23.68;55.79;99824.53;5018884;28;19917;-74
2023/06/24 01:19:39;;;;;;;;;;;;;;;23.59;55.55;99827.72;5020906;28;19967;-74
2023/06/24 01:22:23;;;;;;;;;;;;;;;23.55;55.46;99831.91;5022808;28;20522;-74
2023/06/24 01:24:48;;;;;;;;;;;;;;;23.40;55.29;99834.06;5023059;28;19917;-74
2023/06/24 01:27:14;;;;;;;;;;;;;;;23.42;55.10;99830.13;5020436;28;20016;-74
2023/06/24 01:30:02;;;;;;;;;;;;;;;23.35;55.00;99841.97;5021958;28;20002;-74
2023/06/24 01:32:37;;;;;;;;;;;;;;;23.28;55.14;99837.47;5001747;28;20436;-74
2023/06/24 01:35:11;;;;;;;;;;;;;;;23.26;55.98;99836.03;5021937;28;19921;-74
2023/06/24 01:37:56;;;;;;;;;;;;;;;22.78;58.10;99836.53;5022757;28;19924;-73
2023/06/24 01:40:49;;;;;;;;;;;;;;;22.78;57.99;99830.34;5019724;28;19917;-73
2023/06/24 01:43:15;;;;;;;;;;;;;;;22.85;58.52;99823.06;5022491;28;20373;-73
2023/06/24 01:45:42;;;;;;;;;;;;;;;22.83;58.32;99822.44;5018428;28;20002;-72
2023/06/24 01:48:11;;;;;;;;;;;;;;;22.73;58.86;99816.72;5025888;28;19917;-72
2023/06/24 01:50:38;;;;;;;;;;;;;;;22.77;58.43;99823.28;5021369;28;19917;-72
2023/06/24 01:53:05;;;;;;;;;;;;;;;22.53;59.83;99826.69;5025729;28;20003;-72
2023/06/24 01:55:33;;;;;;;;;;;;;;;22.55;59.80;99819.25;5041296;28;20028;-73
2023/06/24 01:57:59;;;;;;;;;;;;;;;22.56;60.00;99821.69;5038092;28;20675;-73
2023/06/24 02:00:26;;;;;;;;;;;;;;;22.62;60.62;99814.66;5040206;28;19968;-73
2023/06/24 02:02:53;;;;;;;;;;;;;;;22.67;60.65;99818.38;5023948;28;19917;-74
2023/06/24 02:05:20;;;;;;;;;;;;;;;22.69;61.17;99818.13;5024359;28;19927;-73
2023/06/24 02:07:47;;;;;;;;;;;;;;;22.66;62.00;99821.25;5031171;28;19923;-73
2023/06/24 02:10:14;;;;;;;;;;;;;;;22.60;62.99;99819.41;5023037;28;19996;-73
2023/06/24 02:12:40;;;;;;;;;;;;;;;22.38;65.21;99829.66;5027490;28;19918;-73
2023/06/24 02:15:07;;;;;;;;;;;;;;;22.28;66.52;99824.72;5039025;28;19961;-72
2023/06/24 02:17:33;;;;;;;;;;;;;;;22.12;68.47;99830.56;5032519;28;20012;-72
2023/06/24 02:19:59;;;;;;;;;;;;;;;22.05;69.64;99835.09;5024442;28;20004;-72
2023/06/24 02:22:25;;;;;;;;;;;;;;;22.05;69.25;99835.09;5025363;28;19917;-72
2023/06/24 02:24:52;;;;;;;;;;;;;;;21.89;69.06;99828.28;5021773;28;19924;-72
2023/06/24 02:27:17;;;;;;;;;;;;;;;21.86;69.23;99823.31;5012698;28;20377;-73
2023/06/24 02:29:43;;;;;;;;;;;;;;;21.86;69.24;99835.94;5022887;28;19918;-72
2023/06/24 02:32:09;;;;;;;;;;;;;;;21.80;69.47;99826.84;5025001;28;19921;-75
2023/06/24 02:34:35;;;;;;;;;;;;;;;21.87;69.23;99824.97;5037542;28;19917;-75
2023/06/24 02:37:00;;;;;;;;;;;;;;;21.83;69.17;99825.63;5025332;28;19917;-77
2023/06/24 02:39:26;;;;;;;;;;;;;;;21.73;69.95;99831.44;5020974;28;19917;-74
2023/06/24 02:41:51;;;;;;;;;;;;;;;21.56;70.90;99835.53;5026715;28;19971;-75
2023/06/24 02:44:17;;;;;;;;;;;;;;;21.35;72.94;99830.38;5023891;28;20391;-74
2023/06/24 02:46:44;;;;;;;;;;;;;;;20.83;75.59;99840.78;5020138;28;19960;-74
2023/06/24 02:49:11;;;;;;;;;;;;;;;20.55;77.02;99833.88;5022362;28;19953;-74
2023/06/24 02:51:38;;;;;;;;;;;;;;;20.67;77.15;99830.44;5025225;28;19917;-74
2023/06/24 02:54:04;;;;;;;;;;;;;;;20.74;76.90;99825.91;5021091;28;20263;-74
2023/06/24 02:56:52;;;;;;;;;;;;;;;20.63;77.35;99823.78;5024897;28;20047;-74
2023/06/24 02:59:26;;;;;;;;;;;;;;;20.46;77.94;99835.06;5020815;28;20012;-73
2023/06/24 03:01:53;;;;;;;;;;;;;;;20.38;78.59;99831.53;5023670;28;20392;-74
2023/06/24 03:04:19;;;;;;;;;;;;;;;20.38;78.55;99830.72;5022096;28;19917;-75
2023/06/24 03:06:46;;;;;;;;;;;;;;;20.28;79.54;99832.88;5023653;28;20304;-73
2023/06/24 03:09:11;;;;;;;;;;;;;;;20.16;80.77;99837.97;5020645;28;20004;-73
2023/06/24 03:11:43;;;;;;;;;;;;;;;20.04;81.25;99848.44;5020557;28;20003;-72
2023/06/24 03:14:11;;;;;;;;;;;;;;;20.13;80.54;99851.78;5018891;28;20262;-73
2023/06/24 03:16:42;;;;;;;;;;;;;;;20.06;81.50;99852.75;5001770;28;20479;-73
2023/06/24 03:19:13;;;;;;;;;;;;;;;20.16;80.58;99847.88;5007958;28;19918;-72
2023/06/24 03:21:39;;;;;;;;;;;;;;;20.21;80.76;99843.56;5018345;28;19928;-73
2023/06/24 03:24:08;;;;;;;;;;;;;;;20.34;80.29;99840.16;5021595;28;19964;-73
2023/06/24 03:26:37;;;;;;;;;;;;;;;20.41;80.29;99851.75;5023446;28;19917;-71
2023/06/24 03:29:04;;;;;;;;;;;;;;;20.48;80.24;99846.44;5023687;28;20012;-72
2023/06/24 03:31:31;;;;;;;;;;;;;;;20.44;81.10;99859.38;5034787;28;19917;-73
2023/06/24 03:33:57;;;;;;;;;;;;;;;20.46;82.33;99853.84;5022296;28;19917;-73
2023/06/24 03:36:25;;;;;;;;;;;;;;;20.46;82.60;99861.88;5022794;28;19917;-73
2023/06/24 03:38:51;;;;;;;;;;;;;;;20.39;83.39;99864.53;5022463;28;19920;-73
2023/06/24 03:41:17;;;;;;;;;;;;;;;20.22;85.28;99873.88;5021618;28;19917;-73
2023/06/24 03:43:43;;;;;;;;;;;;;;;20.19;85.28;99874.28;5018933;28;19917;-74
2023/06/24 03:46:08;;;;;;;;;;;;;;;20.19;85.61;99874.28;5039321;28;20015;-74
2023/06/24 03:48:35;;;;;;;;;;;;;;;20.20;85.43;99881.31;5024968;28;20445;-73
2023/06/24 03:51:00;;;;;;;;;;;;;;;20.22;84.91;99868.53;5020963;28;20011;-73
2023/06/24 03:53:27;;;;;;;;;;;;;;;20.24;84.93;99878.03;5022432;28;19932;-73
2023/06/24 03:55:53;;;;;;;;;;;;;;;20.31;84.61;99878.06;5024165;28;19917;-73
2023/06/24 03:58:20;;;;;;;;;;;;;;;20.26;85.43;99885.88;5021216;28;19975;-73
2023/06/24 04:00:49;;;;;;;;;;;;;;;20.14;85.98;99887.44;5020542;28;19972;-73
2023/06/24 04:03:17;;;;;;;;;;;;;;;20.03;87.43;99896.84;5023836;28;20000;-74
2023/06/24 04:05:43;;;;;;;;;;;;;;;20.02;87.54;99885.31;5021229;28;19917;-73
2023/06/24 04:08:08;;;;;;;;;;;;;;;19.96;88.16;99891.44;5016776;28;19967;-74
2023/06/24 04:10:33;;;;;;;;;;;;;;;19.89;89.28;99892.41;5018393;28;19924;-73
2023/06/24 04:12:59;;;;;;;;;;;;;;;19.95;89.28;99887.13;5052105;22;19943;-78
2023/06/24 04:15:25;;;;;;;;;;;;;;;19.84;90.28;99894.84;5039359;28;19916;-78
2023/06/24 04:17:50;;;;;;;;;;;;;;;19.75;91.34;99894.16;5040135;28;19924;-77
2023/06/24 04:20:15;;;;;;;;;;;;;;;19.72;91.76;99902.59;5040755;28;20015;-78
2023/06/24 04:22:41;;;;;;;;;;;;;;;19.60;92.30;99904.13;5039205;28;20051;-77
2023/06/24 04:25:07;;;;;;;;;;;;;;;19.60;92.69;99907.63;5041976;28;19928;-77
2023/06/24 04:27:34;;;;;;;;;;;;;;;19.52;92.97;99898.88;5038102;28;19966;-78
2023/06/24 04:30:00;;;;;;;;;;;;;;;19.45;93.71;99897.97;5040754;28;20368;-78
2023/06/24 04:32:27;;;;;;;;;;;;;;;19.48;93.98;99908.34;5040079;28;20007;-79
2023/06/24 04:34:58;;;;;;;;;;;;;;;19.54;93.90;99908.41;5029879;28;19925;-78
2023/06/24 04:37:23;;;;;;;;;;;;;;;19.64;93.74;99908.06;5039945;28;20010;-77
2023/06/24 04:39:49;;;;;;;;;;;;;;;19.73;93.43;99917.63;5040569;28;19921;-76
2023/06/24 04:42:14;;;;;;;;;;;;;;;19.71;93.82;99922.34;5042138;28;19932;-78
2023/06/24 04:44:40;;;;;;;;;;;;;;;19.69;94.33;99926.22;5043162;28;19924;-78
2023/06/24 04:47:05;;;;;;;;;;;;;;;19.72;94.41;99926.69;5042497;28;19923;-77
2023/06/24 04:49:30;;;;;;;;;;;;;;;19.70;94.03;99926.03;5039505;28;19921;-77
2023/06/24 04:51:56;;;;;;;;;;;;;;;19.75;94.08;99931.63;5042034;28;20043;-77
2023/06/24 04:54:21;;;;;;;;;;;;;;;19.75;94.70;99930.81;5040431;28;20323;-77
2023/06/24 04:56:48;;;;;;;;;;;;;;;19.77;94.08;99928.78;5040280;28;19917;-77
2023/06/24 04:59:13;;;;;;;;;;;;;;;19.71;94.55;99935.72;5050151;28;19916;-77
2023/06/24 05:01:39;;;;;;;;;;;;;;;19.18;97.08;99931.66;5047185;28;19940;-77
2023/06/24 05:04:04;;;;;;;;;;;;;;;18.84;99.78;99926.94;5042216;28;19943;-75
2023/06/24 05:06:29;;;;;;;;;;;;;;;18.80;99.87;99931.81;5042724;28;20124;-76
2023/06/24 05:08:55;;;;;;;;;;;;;;;18.67;100.00;99936.19;5044052;28;19962;-77
2023/06/24 05:11:20;;;;;;;;;;;;;;;18.70;99.79;99935.81;5044769;28;19917;-77
2023/06/24 05:13:45;;;;;;;;;;;;;;;18.58;100.00;99937.28;5050123;28;19924;-77
2023/06/24 05:16:11;;;;;;;;;;;;;;;18.66;98.75;99942.53;5045832;28;19924;-78
2023/06/24 05:18:36;;;;;;;;;;;;;;;18.81;98.24;99944.19;5042270;28;19917;-80
2023/06/24 05:21:01;;;;;;;;;;;;;;;18.99;98.36;99951.81;5038498;28;19928;-79
2023/06/24 05:23:27;;;;;;;;;;;;;;;18.99;99.27;99946.47;5046540;28;20016;-80
2023/06/24 05:25:52;;;;;;;;;;;;;;;19.06;99.18;99958.06;5042376;28;19917;-81
2023/06/24 05:28:17;;;;;;;;;;;;;;;19.19;98.97;99962.75;5042533;28;19928;-86
2023/06/24 05:30:44;;;;;;;;;;;;;;;19.39;98.30;99965.63;5045411;28;19929;-85
2023/06/24 05:33:09;;;;;;;;;;;;;;;19.56;97.90;99956.38;5041670;28;19917;-78
2023/06/24 05:35:37;;;;;;;;;;;;;;;19.75;97.69;99958.41;5044648;28;19963;-80
2023/06/24 05:38:02;;;;;;;;;;;;;;;19.82;97.27;99963.84;5048889;28;20027;-80
2023/06/24 05:40:27;;;;;;;;;;;;;;;19.84;97.67;99965.31;5049804;28;20329;-80
2023/06/24 05:42:53;;;;;;;;;;;;;;;19.93;97.60;99966.81;5049748;28;19970;-79
2023/06/24 05:45:18;;;;;;;;;;;;;;;19.96;98.22;99965.63;5043560;28;19920;-79
2023/06/24 05:47:43;;;;;;;;;;;;;;;20.06;98.08;99968.78;5045086;28;19920;-78
2023/06/24 05:50:09;;;;;;;;;;;;;;;20.16;97.29;99971.13;5047235;28;19952;-80
2023/06/24 05:52:34;;;;;;;;;;;;;;;20.12;97.66;99965.34;5044922;28;19917;-78
2023/06/24 05:55:00;;;;;;;;;;;;;;;20.15;98.50;99980.16;5046998;28;20387;-78
2023/06/24 05:57:25;;;;;;;;;;;;;;;20.21;98.38;99976.72;5044183;28;19917;-78
2023/06/24 05:59:50;;;;;;;;;;;;;;;20.30;98.11;99984.44;5044096;28;19924;-79
2023/06/24 06:02:16;;;;;;;;;;;;;;;20.35;98.46;99978.50;5042961;28;19920;-79
2023/06/24 06:04:41;;;;;;;;;;;;;;;20.42;98.30;99971.34;5041763;28;19975;-78
2023/06/24 06:07:06;;;;;;;;;;;;;;;20.55;97.97;99971.44;5044279;28;20380;-80
2023/06/24 06:09:32;;;;;;;;;;;;;;;20.61;98.47;99970.66;5037813;28;20110;-80
2023/06/24 06:11:57;;;;;;;;;;;;;;;20.71;99.49;99979.16;5047049;28;19924;-80
2023/06/24 06:14:22;;;;;;;;;;;;;;;20.78;99.24;99982.72;5038780;28;19928;-78
2023/06/24 06:16:48;;;;;;;;;;;;;;;20.83;99.25;99985.63;5040704;28;19952;-78
2023/06/24 06:19:13;;;;;;;;;;;;;;;20.92;99.36;99977.41;5046672;28;19920;-81
2023/06/24 06:21:39;;;;;;;;;;;;;;;20.89;99.58;99978.63;5342125;23;20363;-79
2023/06/24 06:24:04;;;;;;;;;;;;;;;20.90;100.00;99977.63;5045844;28;20407;-82
2023/06/24 06:26:30;;;;;;;;;;;;;;;20.94;100.00;99988.78;5045255;28;19999;-80
2023/06/24 06:28:55;;;;;;;;;;;;;;;21.06;100.00;99988.00;5057432;28;19920;-82
2023/06/24 06:31:21;;;;;;;;;;;;;;;21.21;100.00;99987.88;5047262;28;19939;-80
2023/06/24 06:33:47;;;;;;;;;;;;;;;21.32;100.00;99989.19;5053156;28;19924;-85
2023/06/24 06:36:13;;;;;;;;;;;;;;;21.38;100.00;99983.84;5048548;28;19928;-81
2023/06/24 06:38:39;;;;;;;;;;;;;;;21.51;99.87;99989.22;5046420;28;19920;-80
2023/06/24 06:41:04;;;;;;;;;;;;;;;21.64;99.81;99993.78;5048811;28;19948;-82
2023/06/24 06:43:29;;;;;;;;;;;;;;;21.76;99.35;99985.97;5045239;28;19924;-81
2023/06/24 06:45:55;;;;;;;;;;;;;;;21.89;98.75;99988.66;5049422;28;19936;-84
2023/06/24 06:48:21;;;;;;;;;;;;;;;21.93;99.19;99995.28;5052240;28;19928;-80
2023/06/24 06:50:46;;;;;;;;;;;;;;;21.98;98.64;99992.81;5051278;28;19917;-80
2023/06/24 06:53:12;;;;;;;;;;;;;;;22.07;98.28;99994.28;5052370;28;19939;-79
2023/06/24 06:55:39;;;;;;;;;;;;;;;22.13;98.40;99985.41;5047548;28;20014;-81
2023/06/24 06:58:04;;;;;;;;;;;;;;;22.28;97.35;99977.94;5043306;28;19923;-79
2023/06/24 07:00:30;;;;;;;;;;;;;;;22.36;97.31;99985.81;5049739;28;19916;-81
2023/06/24 07:02:55;;;;;;;;;;;;;;;22.44;97.00;99985.56;5042671;28;19925;-82
2023/06/24 07:05:20;;;;;;;;;;;;;;;22.50;96.53;99977.72;5050562;28;19970;-82
2023/06/24 07:07:46;;;;;;;;;;;;;;;22.61;96.54;99985.97;5048774;28;19932;-80
2023/06/24 07:10:12;;;;;;;;;;;;;;;22.75;96.68;99981.41;5051117;28;20602;-80
2023/06/24 07:12:37;;;;;;;;;;;;;;;22.81;95.17;99985.94;5048029;28;19917;-81
2023/06/24 07:15:03;;;;;;;;;;;;;;;22.88;94.83;99978.69;5048477;28;20395;-81
2023/06/24 07:17:28;;;;;;;;;;;;;;;23.00;93.72;99989.63;5048537;28;19939;-81
2023/06/24 07:19:54;;;;;;;;;;;;;;;23.06;92.95;99981.53;5049514;28;19913;-81
2023/06/24 07:22:19;;;;;;;;;;;;;;;23.14;91.59;99986.66;5051597;28;20012;-79
2023/06/24 07:24:44;;;;;;;;;;;;;;;23.23;91.03;99988.06;5045900;28;19998;-79
2023/06/24 07:27:10;;;;;;;;;;;;;;;23.33;88.81;99997.56;5050269;28;19962;-82
2023/06/24 07:29:36;;;;;;;;;;;;;;;23.43;88.38;99995.22;5051341;28;19995;-81
2023/06/24 07:32:01;;;;;;;;;;;;;;;23.55;86.43;100004.31;5047863;28;19924;-82
2023/06/24 07:34:26;;;;;;;;;;;;;;;23.63;84.53;100007.56;5052054;28;20536;-81
2023/06/24 07:36:52;;;;;;;;;;;;;;;23.75;82.44;100004.16;5049693;28;19916;-84
2023/06/24 07:39:17;;;;;;;;;;;;;;;23.83;81.82;99996.66;5048605;28;19913;-81
2023/06/24 07:41:42;;;;;;;;;;;;;;;23.95;81.45;99994.91;5051138;28;19923;-81
2023/06/24 07:44:08;;;;;;;;;;;;;;;24.05;80.20;100000.66;5050620;28;19964;-79
2023/06/24 07:46:34;;;;;;;;;;;;;;;24.17;79.24;99999.94;5050529;28;19913;-78
2023/06/24 07:48:59;;;;;;;;;;;;;;;24.27;78.72;100003.81;5051017;28;19917;-78
2023/06/24 07:51:24;;;;;;;;;;;;;;;24.36;76.65;100002.50;5048715;28;19920;-78
2023/06/24 07:53:50;;;;;;;;;;;;;;;24.46;74.62;100002.81;5044301;28;19917;-81
2023/06/24 07:56:15;;;;;;;;;;;;;;;24.55;73.33;99995.25;5051485;28;19925;-86
2023/06/24 07:58:40;;;;;;;;;;;;;;;24.64;73.66;99993.91;5051457;28;19921;-79
2023/06/24 08:01:06;;;;;;;;;;;;;;;24.76;71.29;99997.53;5048572;28;19917;-80
2023/06/24 08:03:31;;;;;;;;;;;;;;;24.84;70.46;99989.13;5050227;28;19923;-81
2023/06/24 08:05:56;;;;;;;;;;;;;;;24.95;68.77;99994.88;5051517;28;19955;-79
2023/06/24 08:08:22;;;;;;;;;;;;;;;25.02;64.89;99987.53;5052035;28;20312;-80
2023/06/24 08:10:47;;;;;;;;;;;;;;;25.13;57.69;99992.16;5051462;28;19920;-81
2023/06/24 08:13:13;;;;;;;;;;;;;;;25.23;57.77;99987.03;5051711;28;19912;-83
2023/06/24 08:15:38;;;;;;;;;;;;;;;25.31;58.77;99984.03;5051866;28;20421;-78
2023/06/24 08:18:03;;;;;;;;;;;;;;;25.39;57.09;99989.09;5044481;28;19917;-79
2023/06/24 08:20:29;;;;;;;;;;;;;;;25.49;57.49;99994.78;5051560;28;19923;-81
2023/06/24 08:22:54;;;;;;;;;;;;;;;25.58;46.75;99995.31;5051193;28;19924;-79
2023/06/24 08:25:20;;;;;;;;;;;;;;;25.72;41.19;99995.97;5043865;28;20027;-81
2023/06/24 08:27:46;;;;;;;;;;;;;;;25.79;44.69;99985.88;5050393;28;19931;-83
2023/06/24 08:30:12;;;;;;;;;;;;;;;25.90;42.34;99991.31;5051348;28;20383;-83
2023/06/24 08:32:38;;;;;;;;;;;;;;;26.02;40.67;99988.63;5051410;28;19913;-82
2023/06/24 08:35:04;;;;;;;;;;;;;;;26.10;38.39;99980.16;5051621;28;20011;-82
2023/06/24 08:37:29;;;;;;;;;;;;;;;26.16;38.84;99981.94;5047032;28;19917;-83
2023/06/24 08:39:54;;;;;;;;;;;;;;;26.24;37.90;99984.34;5044810;28;19974;-82
2023/06/24 08:42:19;;;;;;;;;;;;;;;26.29;37.49;99981.75;5050587;28;20041;-83
2023/06/24 08:44:45;;;;;;;;;;;;;;;26.34;38.17;99984.56;5050716;28;20003;-82
2023/06/24 08:47:11;;;;;;;;;;;;;;;26.39;37.21;99981.97;5037508;28;19916;-82
2023/06/24 08:49:43;;;;;;;;;;;;;;;26.42;36.62;99981.53;5051060;28;19955;-82
2023/06/24 08:52:11;;;;;;;;;;;;;;;26.47;36.99;99978.91;5050015;28;19917;-82
2023/06/24 08:54:38;;;;;;;;;;;;;;;26.55;37.47;99982.34;5050566;28;19916;-83
2023/06/24 08:57:06;;;;;;;;;;;;;;;26.55;35.74;99980.47;5047062;28;20369;-82
2023/06/24 08:59:33;;;;;;;;;;;;;;;26.58;36.92;99976.44;5050532;28;19917;-82
2023/06/24 09:01:58;;;;;;;;;;;;;;;26.63;37.43;99973.84;5049836;28;19971;-82
2023/06/24 09:04:24;;;;;;;;;;;;;;;26.68;37.21;99985.63;5050577;28;20043;-83
2023/06/24 09:06:49;;;;;;;;;;;;;;;26.73;37.48;99982.22;5050423;28;19924;-83
2023/06/24 09:09:21;;;;;;;;;;;;;;;26.77;37.06;99980.66;5050564;28;19966;-82
2023/06/24 09:12:00;;;;;;;;;;;;;;;26.80;38.22;99972.88;5049818;28;19917;-82
2023/06/24 09:14:26;;;;;;;;;;;;;;;26.88;38.47;99975.25;5047878;28;20050;-82
2023/06/24 09:16:52;;;;;;;;;;;;;;;26.94;37.56;99970.75;5048606;28;20350;-81
2023/06/24 09:19:21;;;;;;;;;;;;;;;27.01;38.22;99967.94;5050453;28;20009;-82
2023/06/24 09:21:47;;;;;;;;;;;;;;;27.08;38.16;99969.44;5049704;28;19917;-82
2023/06/24 09:24:12;;;;;;;;;;;;;;;27.16;38.30;99968.22;5050228;28;20392;-82
2023/06/24 09:26:42;;;;;;;;;;;;;;;27.14;36.69;99964.94;5049513;28;20689;-83
2023/06/24 09:29:08;;;;;;;;;;;;;;;27.15;37.18;99970.13;5044833;28;19920;-83
2023/06/24 09:31:33;;;;;;;;;;;;;;;27.19;38.14;99963.16;5046163;28;19913;-83
2023/06/24 09:33:59;;;;;;;;;;;;;;;27.25;38.42;99954.06;5048203;28;19923;-82
2023/06/24 09:36:24;;;;;;;;;;;;;;;27.29;37.84;99960.66;5050306;28;19917;-83
2023/06/24 09:38:49;;;;;;;;;;;;;;;27.34;38.54;99957.19;5049729;28;19940;-83
2023/06/24 09:41:15;;;;;;;;;;;;;;;27.35;37.13;99958.03;5049963;28;19964;-83
2023/06/24 09:43:43;;;;;;;;;;;;;;;27.36;37.63;99949.66;5049613;28;19956;-83
2023/06/24 09:46:09;;;;;;;;;;;;;;;27.38;37.60;99949.44;5049877;28;19913;-82
2023/06/24 09:48:34;;;;;;;;;;;;;;;27.44;37.95;99948.47;5050158;28;19923;-82
2023/06/24 09:51:01;;;;;;;;;;;;;;;27.47;37.35;99945.25;5045579;28;19923;-82
2023/06/24 09:53:33;;;;;;;;;;;;;;;27.53;38.48;99955.16;5042046;28;19928;-84
2023/06/24 09:56:03;;;;;;;;;;;;;;;27.57;36.86;99956.28;5049469;28;19971;-84
2023/06/24 09:58:36;;;;;;;;;;;;;;;27.57;37.58;99948.97;5049384;28;19946;-83
2023/06/24 10:01:02;;;;;;;;;;;;;;;27.57;37.13;99942.75;5049828;28;19917;-84
2023/06/24 10:03:29;;;;;;;;;;;;;;;27.59;37.57;99944.16;5049860;28;19924;-82
2023/06/24 10:05:54;;;;;;;;;;;;;;;27.62;37.39;99942.84;5049907;28;19916;-82
2023/06/24 10:08:20;;;;;;;;;;;;;;;27.64;36.32;99940.69;5053843;28;20376;-82
2023/06/24 10:10:45;;;;;;;;;;;;;;;27.66;35.69;99938.56;5053976;28;19920;-82
2023/06/24 10:13:11;;;;;;;;;;;;;;;27.69;36.50;99938.06;5053450;28;20356;-83
2023/06/24 10:15:36;;;;;;;;;;;;;;;27.73;37.27;99941.97;5053843;28;19920;-83
2023/06/24 10:18:03;;;;;;;;;;;;;;;27.77;36.02;99943.09;5053574;28;19920;-82
2023/06/24 10:20:28;;;;;;;;;;;;;;;27.81;36.60;99940.72;5053316;28;19975;-82
2023/06/24 10:22:54;;;;;;;;;;;;;;;27.83;36.38;99938.59;5053404;28;19920;-83
2023/06/24 10:25:21;;;;;;;;;;;;;;;27.87;37.22;99935.13;5053953;28;19920;-84
2023/06/24 10:27:53;;;;;;;;;;;;;;;27.90;36.54;99931.94;5053333;28;19925;-82
2023/06/24 10:30:19;;;;;;;;;;;;;;;27.94;35.02;99935.78;5053359;28;20329;-82
2023/06/24 10:32:44;;;;;;;;;;;;;;;27.97;35.16;99935.31;5053200;28;19924;-82
2023/06/24 10:35:27;;;;;;;;;;;;;;;28.00;35.31;99929.38;5054097;28;19917;-82
2023/06/24 10:37:56;;;;;;;;;;;;;;;28.03;32.04;99922.66;5053617;28;19963;-84
2023/06/24 10:40:37;;;;;;;;;;;;;;;28.05;32.72;99926.75;5053704;28;20323;-83
2023/06/24 10:43:22;;;;;;;;;;;;;;;28.06;32.92;99922.97;5047864;28;19932;-82
2023/06/24 10:45:51;;;;;;;;;;;;;;;28.10;32.21;99924.09;5048923;28;19976;-82
2023/06/24 10:48:19;;;;;;;;;;;;;;;28.11;32.72;99925.75;5052903;28;19917;-81
2023/06/24 10:50:44;;;;;;;;;;;;;;;28.16;32.64;99921.53;5052562;28;19912;-82
2023/06/24 10:53:10;;;;;;;;;;;;;;;28.21;33.47;99916.16;5052034;28;20016;-80
2023/06/24 10:55:36;;;;;;;;;;;;;;;28.23;33.96;99919.44;5053143;28;19920;-83
2023/06/24 10:58:12;;;;;;;;;;;;;;;28.25;33.74;99909.16;5052639;28;19924;-82
2023/06/24 11:00:39;;;;;;;;;;;;;;;28.25;31.57;99910.00;5049419;28;19962;-83
2023/06/24 11:03:11;;;;;;;;;;;;;;;28.27;32.69;99909.75;5052556;28;19974;-83
2023/06/24 11:05:38;;;;;;;;;;;;;;;28.31;32.93;99903.56;5049644;28;19920;-83
2023/06/24 11:08:04;;;;;;;;;;;;;;;28.37;31.93;99896.31;5048715;28;19952;-84
2023/06/24 11:10:30;;;;;;;;;;;;;;;28.36;32.53;99891.94;5052865;28;19962;-82
2023/06/24 11:12:57;;;;;;;;;;;;;;;28.37;32.73;99890.88;5052419;28;19917;-82
2023/06/24 11:15:22;;;;;;;;;;;;;;;28.40;32.04;99890.38;5052499;28;20027;-83
2023/06/24 11:17:50;;;;;;;;;;;;;;;28.40;32.79;99885.75;5051890;28;19920;-83
2023/06/24 11:20:15;;;;;;;;;;;;;;;28.44;32.64;99886.09;5052327;28;19924;-84
2023/06/24 11:22:41;;;;;;;;;;;;;;;28.50;32.91;99885.09;5052421;28;19924;-83
2023/06/24 11:25:13;;;;;;;;;;;;;;;28.53;32.57;99884.56;5053007;28;19974;-82
2023/06/24 11:27:39;;;;;;;;;;;;;;;28.59;31.91;99886.28;5050450;28;19967;-83
2023/06/24 11:30:04;;;;;;;;;;;;;;;28.64;31.46;99875.47;5052978;28;19953;-83
2023/06/24 11:32:40;;;;;;;;;;;;;;;28.63;30.67;99873.84;5052469;28;19916;-82
2023/06/24 11:35:06;;;;;;;;;;;;;;;28.63;29.65;99879.28;5050935;28;20381;-83
2023/06/24 11:37:34;;;;;;;;;;;;;;;28.64;29.81;99872.78;5054741;28;19939;-82
2023/06/24 11:40:09;;;;;;;;;;;;;;;28.67;28.85;99875.00;5055075;28;19967;-84
2023/06/24 11:42:39;;;;;;;;;;;;;;;28.73;30.07;99870.44;5050945;28;19916;-82
2023/06/24 11:45:06;;;;;;;;;;;;;;;28.80;31.09;99873.81;5050595;28;20358;-81
2023/06/24 11:47:33;;;;;;;;;;;;;;;28.82;31.01;99867.03;5054990;28;20261;-80
2023/06/24 11:49:58;;;;;;;;;;;;;;;28.92;30.41;99870.97;5054602;28;19970;-83
2023/06/24 11:52:35;;;;;;;;;;;;;;;28.97;30.79;99860.16;5054640;28;19917;-83
2023/06/24 11:55:02;;;;;;;;;;;;;;;29.00;30.14;99862.34;5054914;28;20018;-80
2023/06/24 11:57:46;;;;;;;;;;;;;;;29.07;31.48;99862.97;5055096;28;19916;-81
2023/06/24 12:00:34;;;;;;;;;;;;;;;29.18;31.14;99864.72;5050929;28;19920;-83
2023/06/24 12:03:04;;;;;;;;;;;;;;;29.27;30.89;99865.91;5054120;28;20304;-82
2023/06/24 12:05:30;;;;;;;;;;;;;;;29.41;30.43;99863.59;5050251;28;20276;-83
2023/06/24 12:08:00;;;;;;;;;;;;;;;29.50;28.41;99852.00;5052357;28;19917;-83
2023/06/24 12:10:26;;;;;;;;;;;;;;;29.58;28.18;99851.50;5051984;28;19920;-81
2023/06/24 12:12:52;;;;;;;;;;;;;;;29.71;28.97;99845.63;5051755;28;20349;-83
2023/06/24 12:15:17;;;;;;;;;;;;;;;29.85;28.69;99847.91;5052040;28;19917;-82
2023/06/24 12:17:42;;;;;;;;;;;;;;;29.96;28.74;99847.75;5051730;28;20023;-82
2023/06/24 12:20:09;;;;;;;;;;;;;;;30.01;28.29;99842.34;5051427;28;19917;-82
2023/06/24 12:22:35;;;;;;;;;;;;;;;30.15;28.04;99842.69;5051785;28;19922;-82
2023/06/24 12:25:00;;;;;;;;;;;;;;;30.32;27.71;99843.31;5051267;28;19916;-83
2023/06/24 12:27:25;;;;;;;;;;;;;;;30.48;27.20;99834.16;5051368;28;19917;-82
2023/06/24 12:29:51;;;;;;;;;;;;;;;30.57;26.72;99833.66;5050657;28;19944;-82
2023/06/24 12:32:16;;;;;;;;;;;;;;;30.69;26.33;99828.81;5051261;28;19916;-82
2023/06/24 12:34:41;;;;;;;;;;;;;;;30.88;25.40;99824.47;5050685;28;19939;-82
2023/06/24 12:37:07;;;;;;;;;;;;;;;30.95;25.01;99830.50;5051326;28;19982;-78
2023/06/24 12:39:32;;;;;;;;;;;;;;;31.00;25.97;99827.78;5051160;28;19970;-80
2023/06/24 12:41:57;;;;;;;;;;;;;;;31.20;28.76;99825.13;5048074;28;20376;-80
2023/06/24 12:44:23;;;;;;;;;;;;;;;31.28;26.42;99819.09;5048843;28;19920;-80